createdAt,value
2019-05-18T00:02:22.663Z,10.13
2019-05-18T00:04:50.670Z,10.83
2019-05-18T00:07:19.790Z,10.73
2019-05-18T00:09:47.737Z,10.97
2019-05-18T00:12:15.586Z,10.17
2019-05-18T00:14:43.522Z,11.00
2019-05-18T00:17:24.533Z,10.10
2019-05-18T00:19:41.379Z,10.20
2019-05-18T00:22:09.402Z,10.57
2019-05-18T00:24:37.254Z,10.77
2019-05-18T00:27:05.342Z,11.63
2019-05-18T00:29:35.261Z,10.93
2019-05-18T00:32:03.631Z,10.93
2019-05-18T00:34:31.625Z,10.07
2019-05-18T00:36:59.708Z,11.40
2019-05-18T00:39:27.732Z,10.73
2019-05-18T00:41:55.665Z,10.37
2019-05-18T00:44:23.773Z,10.53
2019-05-18T00:46:51.772Z,10.17
2019-05-18T00:49:20.324Z,11.10
2019-05-18T00:51:48.399Z,10.30
2019-05-18T00:54:16.403Z,11.17
2019-05-18T00:56:44.566Z,11.43
2019-05-18T00:59:16.002Z,11.47
2019-05-18T01:01:42.813Z,10.87
2019-05-18T01:04:11.150Z,10.73
2019-05-18T01:06:39.284Z,10.97
2019-05-18T01:09:07.269Z,11.80
2019-05-18T01:11:35.337Z,12.20
2019-05-18T01:14:03.686Z,11.60
2019-05-18T01:16:31.971Z,11.20
2019-05-18T01:18:59.983Z,12.47
2019-05-18T01:21:28.013Z,11.77
2019-05-18T01:23:56.179Z,11.20
2019-05-18T01:26:24.357Z,11.57
2019-05-18T01:28:56.142Z,11.50
2019-05-18T01:31:23.987Z,10.43
2019-05-18T01:33:52.167Z,11.30
2019-05-18T01:36:20.124Z,11.80
2019-05-18T01:38:48.324Z,11.90
2019-05-18T01:41:16.267Z,11.90
2019-05-18T01:43:44.191Z,11.77
2019-05-18T01:46:12.005Z,11.73
2019-05-18T01:48:39.737Z,11.30
2019-05-18T01:51:07.648Z,10.93
2019-05-18T01:53:35.782Z,9.97
2019-05-18T01:56:03.791Z,11.83
2019-05-18T01:58:31.952Z,12.07
2019-05-18T02:00:59.462Z,11.93
2019-05-18T02:03:27.347Z,12.10
2019-05-18T02:05:55.086Z,11.03
2019-05-18T02:08:23.162Z,11.83
2019-05-18T02:10:50.983Z,11.53
2019-05-18T02:13:18.958Z,12.47
2019-05-18T02:15:46.814Z,11.67
2019-05-18T02:18:28.157Z,13.70
2019-05-18T02:20:44.925Z,13.13
2019-05-18T02:23:12.926Z,12.77
2019-05-18T02:25:41.563Z,12.27
2019-05-18T02:28:09.744Z,12.60
2019-05-18T02:30:37.721Z,13.27
2019-05-18T02:33:05.821Z,13.70
2019-05-18T02:35:33.862Z,12.87
2019-05-18T02:38:15.537Z,15.03
2019-05-18T02:40:45.452Z,13.07
2019-05-18T02:43:13.471Z,12.97
2019-05-18T02:45:41.560Z,13.53
2019-05-18T02:48:09.679Z,13.57
2019-05-18T02:50:38.002Z,13.47
2019-05-18T02:53:06.085Z,13.37
2019-05-18T02:55:34.069Z,13.23
2019-05-18T02:58:01.972Z,14.60
2019-05-18T03:00:30.038Z,13.77
2019-05-18T03:02:57.950Z,13.00
2019-05-18T03:05:25.906Z,13.70
2019-05-18T03:07:53.717Z,14.23
2019-05-18T03:10:21.763Z,13.77
2019-05-18T03:12:49.544Z,14.67
2019-05-18T03:15:17.408Z,14.03
2019-05-18T03:17:45.410Z,13.87
2019-05-18T03:20:13.426Z,16.40
2019-05-18T03:22:41.329Z,14.87
2019-05-18T03:25:09.573Z,15.70
2019-05-18T03:27:37.497Z,14.83
2019-05-18T03:30:05.510Z,14.73
2019-05-18T03:32:33.483Z,15.77
2019-05-18T03:35:01.659Z,14.73
2019-05-18T03:37:29.604Z,15.20
2019-05-18T03:39:57.582Z,15.47
2019-05-18T03:42:25.634Z,16.20
2019-05-18T03:44:53.643Z,14.90
2019-05-18T03:47:21.609Z,16.33
2019-05-18T03:49:49.688Z,16.00
2019-05-18T03:52:17.851Z,16.27
2019-05-18T03:54:45.652Z,15.90
2019-05-18T03:57:13.568Z,16.17
2019-05-18T03:59:41.431Z,15.27
2019-05-18T04:02:09.333Z,15.87
2019-05-18T04:04:37.265Z,16.23
2019-05-18T04:07:05.252Z,15.30
2019-05-18T04:09:33.053Z,15.53
2019-05-18T04:12:00.979Z,15.13
2019-05-18T04:14:29.103Z,15.93
2019-05-18T04:16:57.711Z,15.47
2019-05-18T04:19:42.969Z,16.60
2019-05-18T04:21:55.622Z,17.23
2019-05-18T04:24:23.498Z,16.33
2019-05-18T04:26:51.504Z,16.10
2019-05-18T04:29:19.283Z,15.27
2019-05-18T04:31:46.923Z,15.53
2019-05-18T04:34:14.857Z,16.17
2019-05-18T04:36:42.921Z,13.83
2019-05-18T04:39:10.865Z,13.23
2019-05-18T04:41:38.434Z,14.67
2019-05-18T04:44:06.447Z,14.20
2019-05-18T04:46:34.414Z,14.10
2019-05-18T04:49:02.444Z,13.63
2019-05-18T04:51:30.257Z,13.23
2019-05-18T04:53:58.091Z,15.03
2019-05-18T04:56:25.889Z,13.03
2019-05-18T04:58:53.994Z,14.57
2019-05-18T05:01:22.037Z,12.53
2019-05-18T05:03:50.151Z,14.20
2019-05-18T05:06:18.195Z,13.20
2019-05-18T05:08:46.267Z,12.03
2019-05-18T05:11:14.202Z,12.53
2019-05-18T05:13:42.553Z,13.17
2019-05-18T05:16:10.661Z,12.50
2019-05-18T05:18:38.564Z,11.90
2019-05-18T05:21:06.969Z,11.40
2019-05-18T05:23:34.901Z,13.03
2019-05-18T05:26:03.107Z,13.30
2019-05-18T05:28:30.975Z,14.13
2019-05-18T05:30:58.870Z,14.03
2019-05-18T05:33:26.630Z,14.07
2019-05-18T05:35:54.719Z,13.57
2019-05-18T05:38:22.519Z,12.00
2019-05-18T05:40:50.639Z,13.53
2019-05-18T05:43:20.155Z,12.60
2019-05-18T05:45:48.116Z,13.10
2019-05-18T05:48:16.273Z,13.70
2019-05-18T05:50:44.149Z,14.33
2019-05-18T05:53:11.965Z,12.70
2019-05-18T05:55:39.892Z,12.87
2019-05-18T05:58:07.987Z,13.50
2019-05-18T06:00:35.519Z,13.17
2019-05-18T06:03:03.451Z,14.30
2019-05-18T06:05:31.333Z,15.47
2019-05-18T06:07:59.266Z,13.40
2019-05-18T06:10:27.793Z,13.00
2019-05-18T06:12:55.662Z,13.63
2019-05-18T06:15:24.879Z,13.83
2019-05-18T06:17:52.609Z,14.10
2019-05-18T06:20:20.408Z,14.20
2019-05-18T06:22:48.267Z,14.27
2019-05-18T06:25:16.173Z,13.60
2019-05-18T06:27:44.084Z,13.80
2019-05-18T06:30:13.120Z,13.17
2019-05-18T06:32:41.128Z,13.70
2019-05-18T06:35:09.261Z,13.63
2019-05-18T06:37:37.393Z,12.93
2019-05-18T06:40:05.301Z,14.50
2019-05-18T06:42:33.317Z,13.23
2019-05-18T06:45:01.252Z,14.47
2019-05-18T06:47:29.359Z,14.10
2019-05-18T06:49:57.281Z,14.10
2019-05-18T06:52:25.331Z,13.30
2019-05-18T06:54:53.241Z,13.87
2019-05-18T06:57:22.144Z,13.17
2019-05-18T06:59:50.075Z,13.70
2019-05-18T07:02:17.973Z,13.80
2019-05-18T07:04:46.041Z,13.60
2019-05-18T07:07:13.920Z,14.30
2019-05-18T07:09:41.870Z,13.33
2019-05-18T07:12:09.809Z,13.07
2019-05-18T07:14:37.939Z,13.40
2019-05-18T07:17:05.955Z,13.90
2019-05-18T07:19:33.857Z,12.63
2019-05-18T07:22:01.959Z,13.60
2019-05-18T07:24:29.887Z,12.03
2019-05-18T07:26:57.891Z,13.60
2019-05-18T07:29:25.950Z,12.23
2019-05-18T07:31:53.656Z,12.03
2019-05-18T07:34:21.587Z,11.17
2019-05-18T07:36:49.784Z,11.73
2019-05-18T07:39:17.756Z,12.07
2019-05-18T07:41:47.221Z,11.53
2019-05-18T07:44:15.463Z,12.07
2019-05-18T07:46:43.453Z,11.93
2019-05-18T07:49:11.629Z,11.70
2019-05-18T07:51:40.901Z,11.23
2019-05-18T07:54:09.011Z,12.13
2019-05-18T07:56:36.864Z,11.40
2019-05-18T07:59:04.901Z,11.73
2019-05-18T08:01:32.947Z,12.70
2019-05-18T08:04:00.680Z,13.30
2019-05-18T08:06:28.761Z,13.17
2019-05-18T08:08:56.499Z,13.17
2019-05-18T08:11:24.485Z,13.57
2019-05-18T08:13:52.635Z,12.97
2019-05-18T08:16:20.325Z,12.93
2019-05-18T08:18:48.156Z,12.93
2019-05-18T08:21:16.053Z,11.73
2019-05-18T08:23:43.880Z,12.87
2019-05-18T08:26:11.839Z,12.20
2019-05-18T08:28:39.607Z,12.27
2019-05-18T08:31:07.744Z,13.00
2019-05-18T08:33:35.617Z,12.73
2019-05-18T08:36:03.213Z,13.63
2019-05-18T08:38:31.159Z,12.63
2019-05-18T08:41:00.300Z,13.10
2019-05-18T08:43:28.347Z,15.03
2019-05-18T08:45:56.420Z,15.67
2019-05-18T08:48:24.427Z,16.57
2019-05-18T08:50:52.784Z,14.67
2019-05-18T08:53:20.964Z,16.10
2019-05-18T08:55:49.779Z,15.47
2019-05-18T08:58:17.677Z,14.47
2019-05-18T09:00:45.777Z,14.87
2019-05-18T09:03:13.396Z,13.40
2019-05-18T09:05:41.287Z,13.70
2019-05-18T09:08:08.979Z,13.73
2019-05-18T09:10:36.683Z,12.43
2019-05-18T09:13:04.315Z,13.43
2019-05-18T09:15:32.023Z,13.53
2019-05-18T09:17:59.603Z,11.87
2019-05-18T09:20:27.214Z,11.90
2019-05-18T09:22:54.883Z,11.33
2019-05-18T09:25:22.565Z,11.77
2019-05-18T09:27:50.394Z,11.93
2019-05-18T09:30:18.225Z,12.57
2019-05-18T09:32:45.906Z,14.73
2019-05-18T09:35:13.631Z,14.73
2019-05-18T09:37:41.349Z,13.83
2019-05-18T09:40:10.044Z,13.47
2019-05-18T09:42:37.701Z,13.43
2019-05-18T09:45:06.640Z,12.83
2019-05-18T09:47:34.756Z,12.30
2019-05-18T09:50:02.660Z,11.67
2019-05-18T09:52:44.114Z,11.80
2019-05-18T09:55:00.431Z,11.73
2019-05-18T09:57:28.370Z,12.60
2019-05-18T09:59:56.275Z,13.17
2019-05-18T10:02:24.049Z,12.43
2019-05-18T10:04:52.087Z,11.57
2019-05-18T10:07:20.037Z,12.50
2019-05-18T10:09:48.068Z,13.37
2019-05-18T10:12:15.952Z,14.40
2019-05-18T10:14:43.986Z,15.03
2019-05-18T10:17:11.871Z,14.80
2019-05-18T10:19:39.921Z,13.43
2019-05-18T10:22:09.102Z,15.10
2019-05-18T10:24:37.132Z,15.40
2019-05-18T10:27:05.285Z,16.33
2019-05-18T10:29:33.316Z,16.17
2019-05-18T10:32:01.367Z,17.43
2019-05-18T10:34:29.354Z,18.47
2019-05-18T10:36:57.564Z,18.37
2019-05-18T10:39:25.234Z,18.83
2019-05-18T10:41:52.943Z,19.40
2019-05-18T10:44:20.710Z,19.47
2019-05-18T10:46:48.368Z,19.60
2019-05-18T10:49:16.488Z,19.63
2019-05-18T10:51:44.422Z,18.67
2019-05-18T10:54:12.349Z,20.37
2019-05-18T10:56:40.366Z,18.63
2019-05-18T10:59:08.480Z,19.07
2019-05-18T11:01:38.005Z,19.40
2019-05-18T11:04:06.320Z,19.03
2019-05-18T11:06:34.164Z,20.90
2019-05-18T11:09:02.046Z,19.63
2019-05-18T11:11:30.140Z,20.20
2019-05-18T11:13:58.228Z,20.20
2019-05-18T11:16:26.107Z,20.27
2019-05-18T11:18:54.226Z,20.17
2019-05-18T11:21:22.290Z,20.63
2019-05-18T11:23:50.204Z,21.17
2019-05-18T11:26:18.167Z,20.30
2019-05-18T11:28:45.854Z,19.70
2019-05-18T11:31:13.449Z,21.40
2019-05-18T11:33:42.066Z,19.90
2019-05-18T11:36:10.359Z,20.70
2019-05-18T11:38:40.994Z,18.70
2019-05-18T11:41:08.961Z,18.60
2019-05-18T11:43:37.218Z,19.40
2019-05-18T11:46:05.238Z,19.13
2019-05-18T11:48:33.397Z,20.47
2019-05-18T11:51:01.242Z,20.03
2019-05-18T11:53:29.440Z,20.40
2019-05-18T11:55:57.546Z,20.17
2019-05-18T11:58:25.607Z,21.00
2019-05-18T12:00:53.530Z,20.63
2019-05-18T12:03:21.177Z,21.80
2019-05-18T12:05:48.739Z,19.73
2019-05-18T12:08:16.247Z,19.83
2019-05-18T12:10:44.303Z,20.77
2019-05-18T12:13:12.131Z,20.93
2019-05-18T12:15:40.048Z,21.60
2019-05-18T12:18:07.847Z,20.87
2019-05-18T12:20:35.862Z,21.00
2019-05-18T12:23:07.970Z,20.07
2019-05-18T12:25:33.861Z,19.27
2019-05-18T12:28:02.115Z,20.87
2019-05-18T12:30:30.329Z,21.17
2019-05-18T12:32:58.279Z,21.77
2019-05-18T12:35:26.493Z,20.73
2019-05-18T12:37:54.261Z,20.93
2019-05-18T12:40:22.152Z,21.47
2019-05-18T12:42:50.152Z,20.57
2019-05-18T12:45:18.298Z,21.13
2019-05-18T12:47:46.405Z,19.50
2019-05-18T12:50:15.619Z,20.07
2019-05-18T12:52:43.796Z,21.23
2019-05-18T12:55:13.299Z,20.90
2019-05-18T12:57:41.047Z,20.23
2019-05-18T13:00:10.063Z,20.93
2019-05-18T13:02:37.784Z,20.07
2019-05-18T13:05:05.734Z,21.73
2019-05-18T13:07:33.583Z,21.23
2019-05-18T13:10:01.660Z,20.90
2019-05-18T13:12:30.262Z,22.07
2019-05-18T13:14:58.451Z,21.87
2019-05-18T13:17:26.527Z,21.80
2019-05-18T13:19:54.536Z,22.53
2019-05-18T13:22:22.526Z,21.40
2019-05-18T13:24:52.254Z,22.67
2019-05-18T13:27:21.223Z,22.90
2019-05-18T13:29:48.931Z,22.17
2019-05-18T13:32:16.626Z,21.53
2019-05-18T13:34:44.280Z,23.37
2019-05-18T13:37:11.948Z,21.90
2019-05-18T13:39:39.749Z,20.63
2019-05-18T13:42:07.427Z,30.97
2019-05-18T13:44:38.026Z,36.00
2019-05-18T13:47:04.494Z,166.20
2019-05-18T13:49:32.224Z,22.37
2019-05-18T13:51:59.918Z,24.97
2019-05-18T13:54:27.631Z,45.90
2019-05-18T13:56:55.269Z,22.23
2019-05-18T13:59:22.831Z,25.73
2019-05-18T14:01:50.369Z,22.97
2019-05-18T14:04:17.978Z,20.90
2019-05-18T14:06:45.564Z,23.97
2019-05-18T14:09:13.246Z,20.23
2019-05-18T14:11:41.058Z,22.30
2019-05-18T14:14:09.064Z,22.27
2019-05-18T14:16:36.977Z,20.53
2019-05-18T14:19:04.668Z,21.60
2019-05-18T14:21:32.333Z,21.70
2019-05-18T14:23:59.977Z,23.17
2019-05-18T14:26:27.632Z,25.67
2019-05-18T14:28:55.359Z,23.27
2019-05-18T14:31:23.064Z,22.77
2019-05-18T14:33:50.698Z,22.40
2019-05-18T14:36:18.294Z,22.07
2019-05-18T14:38:46.349Z,21.73
2019-05-18T14:41:14.360Z,20.20
2019-05-18T14:43:42.394Z,20.60
2019-05-18T14:46:10.378Z,22.53
2019-05-18T14:48:40.483Z,23.00
2019-05-18T14:51:09.962Z,20.30
2019-05-18T14:53:37.862Z,21.90
2019-05-18T14:56:06.022Z,19.90
2019-05-18T14:58:33.772Z,22.83
2019-05-18T15:01:01.964Z,22.20
2019-05-18T15:03:29.936Z,24.13
2019-05-18T15:05:57.802Z,20.97
2019-05-18T15:08:25.680Z,22.57
2019-05-18T15:10:53.289Z,19.03
2019-05-18T15:13:21.273Z,19.47
2019-05-18T15:15:49.162Z,20.63
2019-05-18T15:18:17.040Z,20.77
2019-05-18T15:20:45.252Z,21.50
2019-05-18T15:23:13.105Z,22.03
2019-05-18T15:25:50.126Z,22.17
2019-05-18T15:28:10.746Z,19.10
2019-05-18T15:30:38.364Z,17.77
2019-05-18T15:33:05.952Z,19.17
2019-05-18T15:35:33.983Z,20.13
2019-05-18T15:38:01.843Z,18.87
2019-05-18T15:40:29.612Z,20.87
2019-05-18T15:42:57.468Z,22.00
2019-05-18T15:45:25.498Z,21.13
2019-05-18T15:47:53.206Z,20.87
2019-05-18T15:50:20.839Z,20.53
2019-05-18T15:52:48.392Z,21.20
2019-05-18T15:55:15.981Z,20.63
2019-05-18T15:57:43.509Z,19.90
2019-05-18T16:00:11.313Z,20.57
2019-05-18T16:02:38.985Z,22.50
2019-05-18T16:05:07.061Z,20.53
2019-05-18T16:07:34.619Z,19.03
2019-05-18T16:10:02.416Z,22.33
2019-05-18T16:12:31.646Z,21.83
2019-05-18T16:14:59.247Z,20.43
2019-05-18T16:17:38.951Z,19.80
2019-05-18T16:19:58.244Z,20.93
2019-05-18T16:22:25.767Z,20.70
2019-05-18T16:24:53.885Z,20.13
2019-05-18T16:27:21.518Z,19.27
2019-05-18T16:29:49.159Z,19.30
2019-05-18T16:32:16.727Z,19.80
2019-05-18T16:34:44.393Z,19.80
2019-05-18T16:37:11.928Z,20.30
2019-05-18T16:39:39.665Z,21.17
2019-05-18T16:42:07.211Z,20.23
2019-05-18T16:44:34.858Z,23.03
2019-05-18T16:47:06.521Z,22.57
2019-05-18T16:50:00.332Z,21.47
2019-05-18T16:52:28.126Z,22.40
2019-05-18T16:54:57.149Z,20.00
2019-05-18T16:57:24.975Z,19.20
2019-05-18T16:59:52.618Z,20.43
2019-05-18T17:02:31.163Z,20.10
2019-05-18T17:04:52.156Z,19.30
2019-05-18T17:07:20.622Z,19.30
2019-05-18T17:09:50.473Z,18.73
2019-05-18T17:12:18.634Z,19.10
2019-05-18T17:14:46.677Z,19.57
2019-05-18T17:17:14.531Z,20.63
2019-05-18T17:19:42.516Z,20.43
2019-05-18T17:22:10.469Z,20.23
2019-05-18T17:24:40.074Z,20.87
2019-05-18T17:27:08.090Z,21.07
2019-05-18T17:29:36.042Z,19.90
2019-05-18T17:32:04.073Z,20.77
2019-05-18T17:34:32.036Z,20.37
2019-05-18T17:37:00.134Z,22.10
2019-05-18T17:39:28.209Z,21.57
2019-05-18T17:41:56.277Z,21.00
2019-05-18T17:44:24.259Z,21.73
2019-05-18T17:46:52.353Z,19.97
2019-05-18T17:49:26.884Z,21.50
2019-05-18T17:51:51.179Z,19.93
2019-05-18T17:54:19.072Z,21.60
2019-05-18T17:56:46.931Z,23.57
2019-05-18T17:59:14.852Z,22.83
2019-05-18T18:01:42.855Z,22.30
2019-05-18T18:04:10.908Z,21.80
2019-05-18T18:06:38.928Z,22.20
2019-05-18T18:09:07.157Z,23.00
2019-05-18T18:11:35.394Z,23.87
2019-05-18T18:14:03.800Z,22.40
2019-05-18T18:16:31.918Z,21.60
2019-05-18T18:18:59.988Z,22.90
2019-05-18T18:21:27.960Z,21.60
2019-05-18T18:23:56.379Z,22.97
2019-05-18T18:26:25.030Z,23.23
2019-05-18T18:28:52.873Z,23.70
2019-05-18T18:31:21.012Z,23.87
2019-05-18T18:33:48.624Z,26.10
2019-05-18T18:36:16.491Z,23.60
2019-05-18T18:38:44.461Z,23.87
2019-05-18T18:41:12.350Z,25.13
2019-05-18T18:43:40.185Z,26.90
2019-05-18T18:46:08.622Z,29.60
2019-05-18T18:48:36.499Z,26.23
2019-05-18T18:51:04.230Z,25.13
2019-05-18T18:53:31.965Z,25.73
2019-05-18T18:55:59.689Z,24.90
2019-05-18T18:58:27.416Z,25.70
2019-05-18T19:00:55.087Z,26.63
2019-05-18T19:03:22.937Z,26.70
2019-05-18T19:05:50.625Z,27.80
2019-05-18T19:08:18.664Z,27.23
2019-05-18T19:10:46.455Z,27.53
2019-05-18T19:13:14.255Z,27.90
2019-05-18T19:15:41.954Z,27.03
2019-05-18T19:18:09.793Z,27.70
2019-05-18T19:20:37.477Z,27.67
2019-05-18T19:23:05.262Z,29.03
2019-05-18T19:25:32.942Z,28.63
2019-05-18T19:28:00.828Z,27.97
2019-05-18T19:30:28.498Z,28.67
2019-05-18T19:32:56.215Z,27.60
2019-05-18T19:35:23.840Z,30.27
2019-05-18T19:37:51.936Z,28.30
2019-05-18T19:40:19.698Z,29.90
2019-05-18T19:42:47.478Z,28.23
2019-05-18T19:45:15.342Z,29.40
2019-05-18T19:47:43.146Z,30.53
2019-05-18T19:50:11.270Z,29.70
2019-05-18T19:52:39.019Z,30.60
2019-05-18T19:55:06.906Z,30.67
2019-05-18T19:57:34.688Z,29.87
2019-05-18T20:00:04.093Z,30.47
2019-05-18T20:02:32.347Z,30.40
2019-05-18T20:05:07.313Z,31.03
2019-05-18T20:07:31.140Z,29.70
2019-05-18T20:09:59.246Z,32.13
2019-05-18T20:12:27.669Z,31.00
2019-05-18T20:14:56.845Z,32.17
2019-05-18T20:17:25.137Z,34.23
2019-05-18T20:19:54.073Z,30.00
2019-05-18T20:22:28.813Z,31.13
2019-05-18T20:25:00.573Z,32.03
2019-05-18T20:27:37.222Z,32.53
2019-05-18T20:30:10.093Z,32.60
2019-05-18T20:32:44.767Z,31.73
2019-05-18T20:35:13.956Z,32.07
2019-05-18T20:37:41.938Z,31.70
2019-05-18T20:40:10.557Z,29.37
2019-05-18T20:42:38.967Z,31.17
2019-05-18T20:45:07.526Z,32.07
2019-05-18T20:47:35.820Z,32.17
2019-05-18T20:50:03.899Z,32.17
2019-05-18T20:52:32.390Z,32.53
2019-05-18T20:55:00.564Z,33.83
2019-05-18T20:57:29.894Z,33.50
2019-05-18T20:59:58.432Z,32.97
2019-05-18T21:05:25.229Z,34.00
2019-05-18T21:07:58.003Z,34.83
2019-05-18T21:10:26.944Z,33.00
2019-05-18T21:12:55.286Z,32.47
2019-05-18T21:15:41.499Z,34.97
2019-05-18T21:18:09.869Z,34.63
2019-05-18T21:20:38.688Z,34.63
2019-05-18T21:23:09.582Z,32.47
2019-05-18T21:29:09.186Z,32.90
2019-05-18T21:31:38.454Z,34.03
2019-05-18T21:34:08.529Z,34.53
2019-05-18T21:36:37.268Z,34.23
2019-05-18T21:39:05.287Z,35.60
2019-05-18T21:41:33.224Z,32.13
2019-05-18T21:44:01.094Z,37.07
2019-05-18T21:46:29.282Z,33.80
2019-05-18T21:48:57.465Z,33.10
2019-05-18T21:51:25.776Z,34.37
2019-05-18T21:53:54.494Z,33.30
2019-05-18T21:56:23.534Z,34.83
2019-05-18T21:58:54.771Z,33.50
2019-05-18T22:01:23.021Z,33.40
2019-05-18T22:04:35.531Z,34.03
2019-05-18T22:11:10.252Z,33.33
2019-05-18T22:11:33.768Z,34.30
2019-05-18T22:14:06.149Z,35.60
2019-05-18T22:17:34.068Z,34.97
2019-05-18T22:24:01.176Z,34.13
2019-05-18T22:26:59.878Z,34.40
2019-05-18T22:30:38.179Z,38.30
2019-05-18T22:33:09.990Z,35.37
2019-05-18T22:35:38.631Z,35.30
2019-05-18T22:38:06.828Z,37.73
2019-05-18T22:40:35.028Z,36.67
2019-05-18T22:43:03.113Z,39.20
2019-05-18T22:45:31.444Z,37.40
2019-05-18T22:47:59.815Z,37.17
2019-05-18T22:50:27.936Z,35.33
2019-05-18T22:52:56.328Z,36.83
2019-05-18T22:55:24.455Z,36.67
2019-05-18T22:57:55.318Z,38.47
2019-05-18T23:00:23.755Z,38.17
2019-05-18T23:02:52.920Z,37.03
2019-05-18T23:05:21.390Z,36.63
2019-05-18T23:07:49.676Z,37.07
2019-05-18T23:10:17.839Z,35.87
2019-05-18T23:12:46.190Z,35.87
2019-05-18T23:15:14.494Z,38.50
2019-05-18T23:17:42.691Z,36.63
2019-05-18T23:20:11.348Z,36.57
2019-05-18T23:22:39.592Z,37.33
2019-05-18T23:25:08.071Z,39.23
2019-05-18T23:27:36.287Z,37.20
2019-05-18T23:30:04.507Z,37.40
2019-05-18T23:32:32.455Z,36.83
2019-05-18T23:35:01.136Z,38.67
2019-05-18T23:37:29.016Z,39.57
2019-05-18T23:39:56.653Z,40.17
2019-05-18T23:42:24.351Z,38.83
2019-05-18T23:44:53.001Z,37.83
2019-05-18T23:47:21.069Z,38.53
2019-05-18T23:49:48.996Z,40.00
2019-05-18T23:52:18.531Z,38.17
2019-05-18T23:54:46.411Z,39.37
2019-05-18T23:57:14.303Z,39.90
2019-05-18T23:59:42.007Z,39.23
